sensor_id;sensor_type;location;lat;lon;timestamp;P1;durP1;ratioP1;P2;durP2;ratioP2
64208;SDS011;50527;52.414;13.226;2023-09-12T00:01:03;6.38;;;3.13;;
64208;SDS011;50527;52.414;13.226;2023-09-12T00:03:30;8.48;;;3.33;;
64208;SDS011;50527;52.414;13.226;2023-09-12T00:05:56;7.32;;;2.80;;
64208;SDS011;50527;52.414;13.226;2023-09-12T00:08:22;8.00;;;3.25;;
64208;SDS011;50527;52.414;13.226;2023-09-12T00:11:04;7.60;;;2.92;;
64208;SDS011;50527;52.414;13.226;2023-09-12T00:13:31;6.50;;;2.80;;
64208;SDS011;50527;52.414;13.226;2023-09-12T00:15:57;13.02;;;3.20;;
64208;SDS011;50527;52.414;13.226;2023-09-12T00:18:23;6.03;;;2.90;;
64208;SDS011;50527;52.414;13.226;2023-09-12T00:20:49;9.25;;;3.17;;
64208;SDS011;50527;52.414;13.226;2023-09-12T00:23:15;8.50;;;3.20;;
64208;SDS011;50527;52.414;13.226;2023-09-12T00:25:41;6.60;;;3.00;;
64208;SDS011;50527;52.414;13.226;2023-09-12T00:28:06;8.95;;;2.95;;
64208;SDS011;50527;52.414;13.226;2023-09-12T00:30:32;8.85;;;2.97;;
64208;SDS011;50527;52.414;13.226;2023-09-12T00:32:57;7.65;;;3.20;;
64208;SDS011;50527;52.414;13.226;2023-09-12T00:35:23;5.20;;;2.67;;
64208;SDS011;50527;52.414;13.226;2023-09-12T00:37:48;5.90;;;2.97;;
64208;SDS011;50527;52.414;13.226;2023-09-12T00:40:14;6.03;;;2.63;;
64208;SDS011;50527;52.414;13.226;2023-09-12T00:42:39;6.75;;;3.05;;
64208;SDS011;50527;52.414;13.226;2023-09-12T00:45:06;6.40;;;3.00;;
64208;SDS011;50527;52.414;13.226;2023-09-12T00:47:31;7.55;;;3.05;;
64208;SDS011;50527;52.414;13.226;2023-09-12T00:49:57;6.18;;;3.05;;
64208;SDS011;50527;52.414;13.226;2023-09-12T00:52:24;8.13;;;3.03;;
64208;SDS011;50527;52.414;13.226;2023-09-12T00:54:51;8.27;;;2.83;;
64208;SDS011;50527;52.414;13.226;2023-09-12T00:57:17;5.97;;;2.83;;
64208;SDS011;50527;52.414;13.226;2023-09-12T00:59:43;7.55;;;2.95;;
64208;SDS011;50527;52.414;13.226;2023-09-12T01:02:09;5.82;;;3.20;;
64208;SDS011;50527;52.414;13.226;2023-09-12T01:04:35;7.93;;;3.33;;
64208;SDS011;50527;52.414;13.226;2023-09-12T01:07:04;5.97;;;2.97;;
64208;SDS011;50527;52.414;13.226;2023-09-12T01:09:31;6.90;;;3.10;;
64208;SDS011;50527;52.414;13.226;2023-09-12T01:11:57;5.13;;;2.92;;
64208;SDS011;50527;52.414;13.226;2023-09-12T01:14:22;12.85;;;3.00;;
64208;SDS011;50527;52.414;13.226;2023-09-12T01:16:48;9.45;;;2.90;;
64208;SDS011;50527;52.414;13.226;2023-09-12T01:19:14;7.05;;;2.90;;
64208;SDS011;50527;52.414;13.226;2023-09-12T01:21:53;5.93;;;3.00;;
64208;SDS011;50527;52.414;13.226;2023-09-12T01:27:48;6.60;;;3.08;;
64208;SDS011;50527;52.414;13.226;2023-09-12T01:30:17;5.35;;;3.05;;
64208;SDS011;50527;52.414;13.226;2023-09-12T01:32:45;10.07;;;3.17;;
64208;SDS011;50527;52.414;13.226;2023-09-12T01:35:12;5.53;;;3.00;;
64208;SDS011;50527;52.414;13.226;2023-09-12T01:37:37;5.50;;;3.00;;
64208;SDS011;50527;52.414;13.226;2023-09-12T01:40:03;6.30;;;2.92;;
64208;SDS011;50527;52.414;13.226;2023-09-12T01:42:31;7.40;;;2.90;;
64208;SDS011;50527;52.414;13.226;2023-09-12T01:45:04;14.57;;;3.70;;
64208;SDS011;50527;52.414;13.226;2023-09-12T01:47:30;8.00;;;2.70;;
64208;SDS011;50527;52.414;13.226;2023-09-12T01:49:58;6.55;;;3.05;;
64208;SDS011;50527;52.414;13.226;2023-09-12T01:52:26;6.82;;;2.72;;
64208;SDS011;50527;52.414;13.226;2023-09-12T01:54:52;6.78;;;3.00;;
64208;SDS011;50527;52.414;13.226;2023-09-12T01:57:19;8.02;;;3.05;;
64208;SDS011;50527;52.414;13.226;2023-09-12T01:59:46;5.45;;;2.95;;
64208;SDS011;50527;52.414;13.226;2023-09-12T02:02:15;8.77;;;3.25;;
64208;SDS011;50527;52.414;13.226;2023-09-12T02:04:41;5.13;;;2.95;;
64208;SDS011;50527;52.414;13.226;2023-09-12T02:07:12;8.90;;;3.20;;
64208;SDS011;50527;52.414;13.226;2023-09-12T02:09:38;6.78;;;2.70;;
64208;SDS011;50527;52.414;13.226;2023-09-12T02:12:03;6.70;;;2.90;;
64208;SDS011;50527;52.414;13.226;2023-09-12T02:14:29;6.93;;;3.20;;
64208;SDS011;50527;52.414;13.226;2023-09-12T02:16:54;6.18;;;2.97;;
64208;SDS011;50527;52.414;13.226;2023-09-12T02:19:20;7.57;;;3.30;;
64208;SDS011;50527;52.414;13.226;2023-09-12T02:21:45;7.35;;;2.78;;
64208;SDS011;50527;52.414;13.226;2023-09-12T02:24:11;6.65;;;2.88;;
64208;SDS011;50527;52.414;13.226;2023-09-12T02:26:36;8.35;;;3.03;;
64208;SDS011;50527;52.414;13.226;2023-09-12T02:29:02;7.57;;;2.80;;
64208;SDS011;50527;52.414;13.226;2023-09-12T02:31:30;5.65;;;2.90;;
64208;SDS011;50527;52.414;13.226;2023-09-12T02:33:56;5.88;;;3.10;;
64208;SDS011;50527;52.414;13.226;2023-09-12T02:36:21;5.65;;;2.50;;
64208;SDS011;50527;52.414;13.226;2023-09-12T02:38:47;7.53;;;2.83;;
64208;SDS011;50527;52.414;13.226;2023-09-12T02:41:12;5.15;;;2.88;;
64208;SDS011;50527;52.414;13.226;2023-09-12T02:43:37;5.93;;;2.97;;
64208;SDS011;50527;52.414;13.226;2023-09-12T02:46:03;6.43;;;3.05;;
64208;SDS011;50527;52.414;13.226;2023-09-12T02:48:28;6.53;;;3.00;;
64208;SDS011;50527;52.414;13.226;2023-09-12T02:50:54;8.02;;;3.08;;
64208;SDS011;50527;52.414;13.226;2023-09-12T02:53:20;9.18;;;2.88;;
64208;SDS011;50527;52.414;13.226;2023-09-12T02:55:45;6.55;;;2.92;;
64208;SDS011;50527;52.414;13.226;2023-09-12T02:58:11;8.75;;;3.08;;
64208;SDS011;50527;52.414;13.226;2023-09-12T03:00:39;5.60;;;2.85;;
64208;SDS011;50527;52.414;13.226;2023-09-12T03:03:05;6.20;;;3.17;;
64208;SDS011;50527;52.414;13.226;2023-09-12T03:05:31;5.85;;;2.90;;
64208;SDS011;50527;52.414;13.226;2023-09-12T03:07:57;7.35;;;3.10;;
64208;SDS011;50527;52.414;13.226;2023-09-12T03:10:22;4.68;;;2.53;;
64208;SDS011;50527;52.414;13.226;2023-09-12T03:12:48;9.02;;;2.80;;
64208;SDS011;50527;52.414;13.226;2023-09-12T03:15:13;6.63;;;3.00;;
64208;SDS011;50527;52.414;13.226;2023-09-12T03:17:39;7.25;;;2.85;;
64208;SDS011;50527;52.414;13.226;2023-09-12T03:20:04;5.13;;;2.53;;
64208;SDS011;50527;52.414;13.226;2023-09-12T03:22:34;5.97;;;3.05;;
64208;SDS011;50527;52.414;13.226;2023-09-12T03:25:02;5.93;;;2.60;;
64208;SDS011;50527;52.414;13.226;2023-09-12T03:27:28;5.03;;;2.60;;
64208;SDS011;50527;52.414;13.226;2023-09-12T03:29:54;7.78;;;3.13;;
64208;SDS011;50527;52.414;13.226;2023-09-12T03:32:19;7.38;;;2.90;;
64208;SDS011;50527;52.414;13.226;2023-09-12T03:34:45;5.25;;;2.80;;
64208;SDS011;50527;52.414;13.226;2023-09-12T03:37:10;4.63;;;2.50;;
64208;SDS011;50527;52.414;13.226;2023-09-12T03:39:36;8.18;;;2.80;;
64208;SDS011;50527;52.414;13.226;2023-09-12T03:42:01;6.47;;;2.63;;
64208;SDS011;50527;52.414;13.226;2023-09-12T03:44:27;8.85;;;3.10;;
64208;SDS011;50527;52.414;13.226;2023-09-12T03:46:52;6.30;;;3.08;;
64208;SDS011;50527;52.414;13.226;2023-09-12T03:49:18;5.68;;;2.97;;
64208;SDS011;50527;52.414;13.226;2023-09-12T03:51:43;6.72;;;2.90;;
64208;SDS011;50527;52.414;13.226;2023-09-12T03:54:09;5.47;;;2.80;;
64208;SDS011;50527;52.414;13.226;2023-09-12T03:56:34;5.90;;;2.60;;
64208;SDS011;50527;52.414;13.226;2023-09-12T03:58:59;5.63;;;2.80;;
64208;SDS011;50527;52.414;13.226;2023-09-12T04:01:25;9.68;;;2.67;;
64208;SDS011;50527;52.414;13.226;2023-09-12T04:03:51;8.48;;;2.47;;
64208;SDS011;50527;52.414;13.226;2023-09-12T04:06:17;6.15;;;2.75;;
64208;SDS011;50527;52.414;13.226;2023-09-12T04:08:42;6.68;;;3.03;;
64208;SDS011;50527;52.414;13.226;2023-09-12T04:11:08;7.18;;;2.85;;
64208;SDS011;50527;52.414;13.226;2023-09-12T04:13:33;8.18;;;2.70;;
64208;SDS011;50527;52.414;13.226;2023-09-12T04:15:59;7.03;;;2.92;;
64208;SDS011;50527;52.414;13.226;2023-09-12T04:18:24;7.32;;;2.90;;
64208;SDS011;50527;52.414;13.226;2023-09-12T04:20:50;6.55;;;3.20;;
64208;SDS011;50527;52.414;13.226;2023-09-12T04:23:15;6.82;;;2.80;;
64208;SDS011;50527;52.414;13.226;2023-09-12T04:25:45;9.05;;;3.10;;
64208;SDS011;50527;52.414;13.226;2023-09-12T04:28:11;5.22;;;2.58;;
64208;SDS011;50527;52.414;13.226;2023-09-12T04:30:36;6.22;;;3.20;;
64208;SDS011;50527;52.414;13.226;2023-09-12T04:33:02;6.53;;;2.97;;
64208;SDS011;50527;52.414;13.226;2023-09-12T04:35:27;10.75;;;2.97;;
64208;SDS011;50527;52.414;13.226;2023-09-12T04:37:53;6.57;;;3.08;;
64208;SDS011;50527;52.414;13.226;2023-09-12T04:40:18;6.38;;;3.00;;
64208;SDS011;50527;52.414;13.226;2023-09-12T04:42:44;4.70;;;2.42;;
64208;SDS011;50527;52.414;13.226;2023-09-12T04:45:09;5.93;;;2.90;;
64208;SDS011;50527;52.414;13.226;2023-09-12T04:47:35;6.97;;;3.03;;
64208;SDS011;50527;52.414;13.226;2023-09-12T04:50:00;4.78;;;2.70;;
64208;SDS011;50527;52.414;13.226;2023-09-12T04:52:26;5.32;;;2.83;;
64208;SDS011;50527;52.414;13.226;2023-09-12T04:54:52;4.65;;;2.70;;
64208;SDS011;50527;52.414;13.226;2023-09-12T04:57:17;7.88;;;2.67;;
64208;SDS011;50527;52.414;13.226;2023-09-12T04:59:43;9.30;;;3.05;;
64208;SDS011;50527;52.414;13.226;2023-09-12T05:02:09;6.32;;;2.80;;
64208;SDS011;50527;52.414;13.226;2023-09-12T05:04:34;7.28;;;2.90;;
64208;SDS011;50527;52.414;13.226;2023-09-12T05:07:00;8.00;;;2.83;;
64208;SDS011;50527;52.414;13.226;2023-09-12T05:09:25;7.00;;;2.80;;
64208;SDS011;50527;52.414;13.226;2023-09-12T05:11:51;5.18;;;2.92;;
64208;SDS011;50527;52.414;13.226;2023-09-12T05:14:16;7.78;;;2.83;;
64208;SDS011;50527;52.414;13.226;2023-09-12T05:16:42;9.13;;;3.10;;
64208;SDS011;50527;52.414;13.226;2023-09-12T05:19:07;6.05;;;2.88;;
64208;SDS011;50527;52.414;13.226;2023-09-12T05:21:33;8.07;;;2.83;;
64208;SDS011;50527;52.414;13.226;2023-09-12T05:23:58;6.78;;;2.80;;
64208;SDS011;50527;52.414;13.226;2023-09-12T05:26:24;11.70;;;3.00;;
64208;SDS011;50527;52.414;13.226;2023-09-12T05:28:49;5.93;;;2.65;;
64208;SDS011;50527;52.414;13.226;2023-09-12T05:31:14;6.82;;;2.80;;
64208;SDS011;50527;52.414;13.226;2023-09-12T05:33:40;5.22;;;3.08;;
64208;SDS011;50527;52.414;13.226;2023-09-12T05:36:05;10.98;;;3.75;;
64208;SDS011;50527;52.414;13.226;2023-09-12T05:38:31;10.65;;;3.00;;
64208;SDS011;50527;52.414;13.226;2023-09-12T05:40:56;8.80;;;2.95;;
64208;SDS011;50527;52.414;13.226;2023-09-12T05:43:22;6.90;;;3.00;;
64208;SDS011;50527;52.414;13.226;2023-09-12T05:45:47;7.05;;;2.92;;
64208;SDS011;50527;52.414;13.226;2023-09-12T05:48:13;7.55;;;2.67;;
64208;SDS011;50527;52.414;13.226;2023-09-12T05:50:38;4.90;;;2.47;;
64208;SDS011;50527;52.414;13.226;2023-09-12T05:53:04;4.05;;;2.75;;
64208;SDS011;50527;52.414;13.226;2023-09-12T05:55:29;6.18;;;2.60;;
64208;SDS011;50527;52.414;13.226;2023-09-12T05:57:55;6.68;;;2.97;;
64208;SDS011;50527;52.414;13.226;2023-09-12T06:00:20;6.05;;;3.08;;
64208;SDS011;50527;52.414;13.226;2023-09-12T06:02:46;7.43;;;2.97;;
64208;SDS011;50527;52.414;13.226;2023-09-12T06:05:12;7.88;;;3.10;;
64208;SDS011;50527;52.414;13.226;2023-09-12T06:07:38;7.78;;;2.80;;
64208;SDS011;50527;52.414;13.226;2023-09-12T06:10:05;8.00;;;3.38;;
64208;SDS011;50527;52.414;13.226;2023-09-12T06:12:31;8.35;;;2.80;;
64208;SDS011;50527;52.414;13.226;2023-09-12T06:14:58;7.20;;;3.22;;
64208;SDS011;50527;52.414;13.226;2023-09-12T06:17:24;11.32;;;3.17;;
64208;SDS011;50527;52.414;13.226;2023-09-12T06:19:49;5.20;;;2.50;;
64208;SDS011;50527;52.414;13.226;2023-09-12T06:22:15;6.72;;;2.50;;
64208;SDS011;50527;52.414;13.226;2023-09-12T06:24:42;9.13;;;3.05;;
64208;SDS011;50527;52.414;13.226;2023-09-12T06:27:08;6.60;;;2.40;;
64208;SDS011;50527;52.414;13.226;2023-09-12T06:29:33;6.70;;;2.60;;
64208;SDS011;50527;52.414;13.226;2023-09-12T06:31:59;5.20;;;2.92;;
64208;SDS011;50527;52.414;13.226;2023-09-12T06:34:24;11.80;;;2.60;;
64208;SDS011;50527;52.414;13.226;2023-09-12T06:36:50;10.73;;;2.83;;
64208;SDS011;50527;52.414;13.226;2023-09-12T06:39:15;5.07;;;2.78;;
64208;SDS011;50527;52.414;13.226;2023-09-12T06:41:41;6.93;;;3.08;;
64208;SDS011;50527;52.414;13.226;2023-09-12T06:44:06;7.65;;;2.70;;
64208;SDS011;50527;52.414;13.226;2023-09-12T06:46:32;5.88;;;2.33;;
64208;SDS011;50527;52.414;13.226;2023-09-12T06:49:00;7.78;;;2.72;;
64208;SDS011;50527;52.414;13.226;2023-09-12T06:51:27;7.60;;;2.72;;
64208;SDS011;50527;52.414;13.226;2023-09-12T06:53:52;7.80;;;2.30;;
64208;SDS011;50527;52.414;13.226;2023-09-12T06:56:18;6.60;;;2.35;;
64208;SDS011;50527;52.414;13.226;2023-09-12T06:58:43;8.93;;;2.42;;
64208;SDS011;50527;52.414;13.226;2023-09-12T07:01:09;7.60;;;2.40;;
64208;SDS011;50527;52.414;13.226;2023-09-12T07:03:35;4.65;;;2.13;;
64208;SDS011;50527;52.414;13.226;2023-09-12T07:06:01;7.43;;;2.00;;
64208;SDS011;50527;52.414;13.226;2023-09-12T07:08:28;4.63;;;2.03;;
64208;SDS011;50527;52.414;13.226;2023-09-12T07:10:57;7.80;;;2.10;;
64208;SDS011;50527;52.414;13.226;2023-09-12T07:13:24;7.60;;;1.75;;
64208;SDS011;50527;52.414;13.226;2023-09-12T07:15:50;9.50;;;2.30;;
64208;SDS011;50527;52.414;13.226;2023-09-12T07:18:16;5.43;;;2.08;;
64208;SDS011;50527;52.414;13.226;2023-09-12T07:20:42;5.90;;;2.00;;
64208;SDS011;50527;52.414;13.226;2023-09-12T07:23:07;5.57;;;2.17;;
64208;SDS011;50527;52.414;13.226;2023-09-12T07:25:39;4.45;;;2.10;;
64208;SDS011;50527;52.414;13.226;2023-09-12T07:28:06;7.57;;;1.98;;
64208;SDS011;50527;52.414;13.226;2023-09-12T07:30:36;3.90;;;1.63;;
64208;SDS011;50527;52.414;13.226;2023-09-12T07:33:02;5.85;;;2.42;;
64208;SDS011;50527;52.414;13.226;2023-09-12T07:35:29;6.85;;;2.00;;
64208;SDS011;50527;52.414;13.226;2023-09-12T07:37:55;6.45;;;2.00;;
64208;SDS011;50527;52.414;13.226;2023-09-12T07:40:21;6.25;;;1.88;;
64208;SDS011;50527;52.414;13.226;2023-09-12T07:42:46;7.47;;;1.83;;
64208;SDS011;50527;52.414;13.226;2023-09-12T07:45:12;5.18;;;1.90;;
64208;SDS011;50527;52.414;13.226;2023-09-12T07:47:38;10.48;;;1.90;;
64208;SDS011;50527;52.414;13.226;2023-09-12T07:50:04;12.32;;;1.80;;
64208;SDS011;50527;52.414;13.226;2023-09-12T07:52:31;10.10;;;1.88;;
64208;SDS011;50527;52.414;13.226;2023-09-12T07:54:59;5.53;;;1.70;;
64208;SDS011;50527;52.414;13.226;2023-09-12T07:57:25;4.32;;;1.40;;
64208;SDS011;50527;52.414;13.226;2023-09-12T07:59:51;9.77;;;1.90;;
64208;SDS011;50527;52.414;13.226;2023-09-12T08:02:16;5.93;;;1.70;;
64208;SDS011;50527;52.414;13.226;2023-09-12T08:04:45;8.27;;;1.90;;
64208;SDS011;50527;52.414;13.226;2023-09-12T08:07:10;5.82;;;1.63;;
64208;SDS011;50527;52.414;13.226;2023-09-12T08:09:52;9.48;;;1.85;;
64208;SDS011;50527;52.414;13.226;2023-09-12T08:12:19;9.50;;;1.95;;
64208;SDS011;50527;52.414;13.226;2023-09-12T08:14:46;8.60;;;1.80;;
64208;SDS011;50527;52.414;13.226;2023-09-12T08:17:11;11.07;;;1.70;;
64208;SDS011;50527;52.414;13.226;2023-09-12T08:19:37;12.57;;;1.60;;
64208;SDS011;50527;52.414;13.226;2023-09-12T08:22:03;9.25;;;1.80;;
64208;SDS011;50527;52.414;13.226;2023-09-12T08:24:29;10.18;;;2.03;;
64208;SDS011;50527;52.414;13.226;2023-09-12T08:26:55;14.38;;;1.92;;
64208;SDS011;50527;52.414;13.226;2023-09-12T08:29:20;10.07;;;2.08;;
64208;SDS011;50527;52.414;13.226;2023-09-12T08:31:46;6.90;;;1.75;;
64208;SDS011;50527;52.414;13.226;2023-09-12T08:34:12;8.05;;;2.05;;
64208;SDS011;50527;52.414;13.226;2023-09-12T08:36:38;6.50;;;1.67;;
64208;SDS011;50527;52.414;13.226;2023-09-12T08:39:04;8.10;;;1.85;;
64208;SDS011;50527;52.414;13.226;2023-09-12T08:41:31;12.82;;;2.00;;
64208;SDS011;50527;52.414;13.226;2023-09-12T08:43:57;7.40;;;1.40;;
64208;SDS011;50527;52.414;13.226;2023-09-12T08:46:23;4.13;;;1.42;;
64208;SDS011;50527;52.414;13.226;2023-09-12T08:48:49;13.52;;;2.20;;
64208;SDS011;50527;52.414;13.226;2023-09-12T08:51:14;7.60;;;2.00;;
64208;SDS011;50527;52.414;13.226;2023-09-12T08:53:40;10.07;;;1.67;;
64208;SDS011;50527;52.414;13.226;2023-09-12T08:56:05;6.90;;;1.83;;
64208;SDS011;50527;52.414;13.226;2023-09-12T08:58:32;8.25;;;1.45;;
64208;SDS011;50527;52.414;13.226;2023-09-12T09:00:59;9.45;;;1.70;;
64208;SDS011;50527;52.414;13.226;2023-09-12T09:03:25;7.88;;;1.95;;
64208;SDS011;50527;52.414;13.226;2023-09-12T09:05:51;8.93;;;1.63;;
64208;SDS011;50527;52.414;13.226;2023-09-12T09:08:19;8.07;;;1.70;;
64208;SDS011;50527;52.414;13.226;2023-09-12T09:10:58;9.18;;;1.98;;
64208;SDS011;50527;52.414;13.226;2023-09-12T09:13:27;7.82;;;1.92;;
64208;SDS011;50527;52.414;13.226;2023-09-12T09:18:53;8.98;;;2.20;;
64208;SDS011;50527;52.414;13.226;2023-09-12T09:21:20;8.00;;;2.13;;
64208;SDS011;50527;52.414;13.226;2023-09-12T09:23:51;9.43;;;2.38;;
64208;SDS011;50527;52.414;13.226;2023-09-12T09:26:17;12.93;;;2.20;;
64208;SDS011;50527;52.414;13.226;2023-09-12T09:28:44;11.02;;;2.15;;
64208;SDS011;50527;52.414;13.226;2023-09-12T09:31:10;15.68;;;2.20;;
64208;SDS011;50527;52.414;13.226;2023-09-12T09:33:36;11.40;;;2.30;;
64208;SDS011;50527;52.414;13.226;2023-09-12T09:36:03;7.38;;;2.00;;
64208;SDS011;50527;52.414;13.226;2023-09-12T09:38:30;8.23;;;1.85;;
64208;SDS011;50527;52.414;13.226;2023-09-12T09:40:56;13.60;;;2.20;;
64208;SDS011;50527;52.414;13.226;2023-09-12T09:43:22;13.57;;;1.88;;
64208;SDS011;50527;52.414;13.226;2023-09-12T09:45:49;9.95;;;2.10;;
64208;SDS011;50527;52.414;13.226;2023-09-12T09:48:22;6.10;;;1.75;;
64208;SDS011;50527;52.414;13.226;2023-09-12T09:50:49;14.80;;;2.25;;
64208;SDS011;50527;52.414;13.226;2023-09-12T09:53:14;9.48;;;1.73;;
64208;SDS011;50527;52.414;13.226;2023-09-12T09:55:40;10.80;;;1.80;;
64208;SDS011;50527;52.414;13.226;2023-09-12T09:58:07;10.07;;;1.60;;
64208;SDS011;50527;52.414;13.226;2023-09-12T10:00:38;9.88;;;1.85;;
64208;SDS011;50527;52.414;13.226;2023-09-12T10:03:05;17.17;;;2.50;;
64208;SDS011;50527;52.414;13.226;2023-09-12T10:05:31;13.40;;;2.03;;
64208;SDS011;50527;52.414;13.226;2023-09-12T10:07:58;11.43;;;2.30;;
64208;SDS011;50527;52.414;13.226;2023-09-12T10:10:25;13.63;;;2.20;;
64208;SDS011;50527;52.414;13.226;2023-09-12T10:12:55;8.25;;;2.10;;
64208;SDS011;50527;52.414;13.226;2023-09-12T10:15:22;12.43;;;1.83;;
64208;SDS011;50527;52.414;13.226;2023-09-12T10:17:56;7.55;;;1.98;;
64208;SDS011;50527;52.414;13.226;2023-09-12T10:20:24;8.97;;;2.27;;
64208;SDS011;50527;52.414;13.226;2023-09-12T10:22:59;10.70;;;1.90;;
64208;SDS011;50527;52.414;13.226;2023-09-12T10:25:35;12.23;;;1.98;;
64208;SDS011;50527;52.414;13.226;2023-09-12T10:28:03;10.75;;;1.85;;
64208;SDS011;50527;52.414;13.226;2023-09-12T10:30:30;10.18;;;2.33;;
64208;SDS011;50527;52.414;13.226;2023-09-12T10:32:56;10.68;;;1.90;;
64208;SDS011;50527;52.414;13.226;2023-09-12T10:35:22;10.50;;;2.22;;
64208;SDS011;50527;52.414;13.226;2023-09-12T10:37:51;9.10;;;2.05;;
64208;SDS011;50527;52.414;13.226;2023-09-12T10:40:18;9.38;;;2.05;;
64208;SDS011;50527;52.414;13.226;2023-09-12T10:42:44;10.95;;;2.00;;
64208;SDS011;50527;52.414;13.226;2023-09-12T10:45:11;8.85;;;2.10;;
64208;SDS011;50527;52.414;13.226;2023-09-12T10:47:38;4.97;;;1.70;;
64208;SDS011;50527;52.414;13.226;2023-09-12T10:50:04;5.85;;;1.75;;
64208;SDS011;50527;52.414;13.226;2023-09-12T10:52:30;7.80;;;2.08;;
64208;SDS011;50527;52.414;13.226;2023-09-12T10:54:55;8.25;;;2.35;;
64208;SDS011;50527;52.414;13.226;2023-09-12T10:57:21;7.65;;;1.70;;
64208;SDS011;50527;52.414;13.226;2023-09-12T11:02:28;7.30;;;1.67;;
64208;SDS011;50527;52.414;13.226;2023-09-12T11:05:02;7.72;;;1.60;;
64208;SDS011;50527;52.414;13.226;2023-09-12T11:12:43;5.70;;;1.40;;
64208;SDS011;50527;52.414;13.226;2023-09-12T11:15:10;4.50;;;1.38;;
64208;SDS011;50527;52.414;13.226;2023-09-12T11:17:39;4.45;;;1.60;;
64208;SDS011;50527;52.414;13.226;2023-09-12T11:20:05;6.90;;;1.35;;
64208;SDS011;50527;52.414;13.226;2023-09-12T11:22:41;6.65;;;1.30;;
64208;SDS011;50527;52.414;13.226;2023-09-12T11:30:18;5.00;;;1.50;;
64208;SDS011;50527;52.414;13.226;2023-09-12T11:32:46;10.52;;;1.80;;
64208;SDS011;50527;52.414;13.226;2023-09-12T11:35:13;3.83;;;1.52;;
64208;SDS011;50527;52.414;13.226;2023-09-12T11:37:39;7.50;;;1.33;;
64208;SDS011;50527;52.414;13.226;2023-09-12T11:40:21;10.25;;;1.85;;
64208;SDS011;50527;52.414;13.226;2023-09-12T11:43:06;9.20;;;1.67;;
64208;SDS011;50527;52.414;13.226;2023-09-12T11:45:43;6.07;;;1.70;;
64208;SDS011;50527;52.414;13.226;2023-09-12T11:48:09;7.65;;;1.60;;
64208;SDS011;50527;52.414;13.226;2023-09-12T11:50:35;7.68;;;1.77;;
64208;SDS011;50527;52.414;13.226;2023-09-12T11:53:10;3.83;;;1.23;;
64208;SDS011;50527;52.414;13.226;2023-09-12T11:55:37;5.80;;;1.70;;
64208;SDS011;50527;52.414;13.226;2023-09-12T11:58:13;5.18;;;1.88;;
64208;SDS011;50527;52.414;13.226;2023-09-12T12:00:43;6.88;;;1.60;;
64208;SDS011;50527;52.414;13.226;2023-09-12T12:03:16;4.75;;;1.50;;
64208;SDS011;50527;52.414;13.226;2023-09-12T12:05:42;8.43;;;1.85;;
64208;SDS011;50527;52.414;13.226;2023-09-12T12:08:08;8.63;;;1.88;;
64208;SDS011;50527;52.414;13.226;2023-09-12T12:10:35;9.00;;;1.70;;
64208;SDS011;50527;52.414;13.226;2023-09-12T12:13:03;8.02;;;1.73;;
64208;SDS011;50527;52.414;13.226;2023-09-12T12:15:28;8.95;;;1.60;;
64208;SDS011;50527;52.414;13.226;2023-09-12T12:17:54;9.93;;;1.80;;
64208;SDS011;50527;52.414;13.226;2023-09-12T12:20:21;6.72;;;1.70;;
64208;SDS011;50527;52.414;13.226;2023-09-12T12:22:46;7.28;;;1.77;;
64208;SDS011;50527;52.414;13.226;2023-09-12T12:25:14;10.82;;;1.70;;
64208;SDS011;50527;52.414;13.226;2023-09-12T12:27:40;4.65;;;1.52;;
64208;SDS011;50527;52.414;13.226;2023-09-12T12:30:07;4.68;;;1.33;;
64208;SDS011;50527;52.414;13.226;2023-09-12T12:32:35;8.10;;;1.50;;
64208;SDS011;50527;52.414;13.226;2023-09-12T12:35:04;6.65;;;1.92;;
64208;SDS011;50527;52.414;13.226;2023-09-12T12:37:30;5.65;;;1.48;;
64208;SDS011;50527;52.414;13.226;2023-09-12T12:39:56;7.13;;;1.70;;
64208;SDS011;50527;52.414;13.226;2023-09-12T12:42:22;7.07;;;1.58;;
64208;SDS011;50527;52.414;13.226;2023-09-12T12:44:55;4.18;;;1.45;;
64208;SDS011;50527;52.414;13.226;2023-09-12T12:47:21;10.70;;;1.60;;
64208;SDS011;50527;52.414;13.226;2023-09-12T12:49:50;8.82;;;1.60;;
64208;SDS011;50527;52.414;13.226;2023-09-12T12:52:18;8.32;;;1.60;;
64208;SDS011;50527;52.414;13.226;2023-09-12T12:54:47;5.28;;;1.50;;
64208;SDS011;50527;52.414;13.226;2023-09-12T12:57:17;6.93;;;1.73;;
64208;SDS011;50527;52.414;13.226;2023-09-12T12:59:47;6.45;;;1.50;;
64208;SDS011;50527;52.414;13.226;2023-09-12T13:02:13;7.32;;;1.40;;
64208;SDS011;50527;52.414;13.226;2023-09-12T13:04:39;7.43;;;1.38;;
64208;SDS011;50527;52.414;13.226;2023-09-12T13:07:04;7.40;;;1.40;;
64208;SDS011;50527;52.414;13.226;2023-09-12T13:09:30;6.82;;;1.42;;
64208;SDS011;50527;52.414;13.226;2023-09-12T13:11:57;7.45;;;1.35;;
64208;SDS011;50527;52.414;13.226;2023-09-12T13:14:22;3.25;;;1.40;;
64208;SDS011;50527;52.414;13.226;2023-09-12T13:16:55;7.18;;;1.58;;
64208;SDS011;50527;52.414;13.226;2023-09-12T13:19:21;8.43;;;1.85;;
64208;SDS011;50527;52.414;13.226;2023-09-12T13:21:47;6.45;;;1.83;;
64208;SDS011;50527;52.414;13.226;2023-09-12T13:24:12;7.00;;;1.60;;
64208;SDS011;50527;52.414;13.226;2023-09-12T13:26:38;5.32;;;1.58;;
64208;SDS011;50527;52.414;13.226;2023-09-12T13:29:05;6.22;;;1.67;;
64208;SDS011;50527;52.414;13.226;2023-09-12T13:31:30;10.60;;;1.77;;
64208;SDS011;50527;52.414;13.226;2023-09-12T13:33:56;6.65;;;1.58;;
64208;SDS011;50527;52.414;13.226;2023-09-12T13:36:22;7.60;;;1.55;;
64208;SDS011;50527;52.414;13.226;2023-09-12T13:38:48;5.10;;;1.20;;
64208;SDS011;50527;52.414;13.226;2023-09-12T13:41:16;6.97;;;1.58;;
64208;SDS011;50527;52.414;13.226;2023-09-12T13:43:42;10.65;;;1.55;;
64208;SDS011;50527;52.414;13.226;2023-09-12T13:46:11;11.57;;;1.60;;
64208;SDS011;50527;52.414;13.226;2023-09-12T13:48:37;6.20;;;1.40;;
64208;SDS011;50527;52.414;13.226;2023-09-12T13:51:02;8.88;;;1.30;;
64208;SDS011;50527;52.414;13.226;2023-09-12T13:53:28;8.73;;;1.55;;
64208;SDS011;50527;52.414;13.226;2023-09-12T13:55:53;8.95;;;1.50;;
64208;SDS011;50527;52.414;13.226;2023-09-12T13:58:21;6.53;;;1.60;;
64208;SDS011;50527;52.414;13.226;2023-09-12T14:00:47;4.00;;;1.63;;
64208;SDS011;50527;52.414;13.226;2023-09-12T14:03:13;8.82;;;1.63;;
64208;SDS011;50527;52.414;13.226;2023-09-12T14:05:39;8.38;;;1.67;;
64208;SDS011;50527;52.414;13.226;2023-09-12T14:08:05;9.15;;;1.67;;
64208;SDS011;50527;52.414;13.226;2023-09-12T14:10:30;5.50;;;1.30;;
64208;SDS011;50527;52.414;13.226;2023-09-12T14:12:56;9.75;;;1.63;;
64208;SDS011;50527;52.414;13.226;2023-09-12T14:15:21;7.75;;;1.42;;
64208;SDS011;50527;52.414;13.226;2023-09-12T14:17:47;7.22;;;1.38;;
64208;SDS011;50527;52.414;13.226;2023-09-12T14:20:12;8.25;;;1.40;;
64208;SDS011;50527;52.414;13.226;2023-09-12T14:22:40;5.68;;;1.60;;
64208;SDS011;50527;52.414;13.226;2023-09-12T14:25:06;4.45;;;1.33;;
64208;SDS011;50527;52.414;13.226;2023-09-12T14:27:33;7.32;;;1.50;;
64208;SDS011;50527;52.414;13.226;2023-09-12T14:29:58;15.02;;;1.55;;
64208;SDS011;50527;52.414;13.226;2023-09-12T14:32:24;7.15;;;1.77;;
64208;SDS011;50527;52.414;13.226;2023-09-12T14:34:50;14.35;;;1.70;;
64208;SDS011;50527;52.414;13.226;2023-09-12T14:37:16;4.13;;;1.42;;
64208;SDS011;50527;52.414;13.226;2023-09-12T14:39:41;1.40;;;0.80;;
64208;SDS011;50527;52.414;13.226;2023-09-12T14:42:07;3.30;;;0.85;;
64208;SDS011;50527;52.414;13.226;2023-09-12T14:44:34;4.68;;;0.82;;
64208;SDS011;50527;52.414;13.226;2023-09-12T14:47:00;4.90;;;0.90;;
64208;SDS011;50527;52.414;13.226;2023-09-12T14:49:25;3.70;;;0.75;;